Time;durP1;ratioP1;P1;durP2;ratioP2;P2;SDS_P1;SDS_P2;PMS_P1;PMS_P2;Temp;Humidity;BMP_temperature;BMP_pressure;BME280_temperature;BME280_humidity;BME280_pressure;Samples;Min_cycle;Max_cycle;Signal;HPM_P1;HPM_P2
2022/06/05 00:00:00;;;;;;;2.30;1.87;;;19.10;99.90;;;;;;5137379;27;20450;-82
2022/06/05 00:02:39;;;;;;;6.30;1.57;;;19.10;99.90;;;;;;5137464;27;20473;-83
2022/06/05 00:05:14;;;;;;;1.83;1.73;;;19.00;99.90;;;;;;5137306;27;20524;-83
2022/06/05 00:07:53;;;;;;;1.90;1.50;;;19.00;99.90;;;;;;5137585;27;20422;-83
2022/06/05 00:10:23;;;;;;;2.47;1.50;;;18.90;99.90;;;;;;5137387;27;20783;-83
2022/06/05 00:12:58;;;;;;;3.70;1.47;;;18.90;99.90;;;;;;5137053;27;20972;-82
2022/06/05 00:15:25;;;;;;;2.73;1.30;;;18.80;99.90;;;;;;5137402;27;20433;-83
2022/06/05 00:17:52;;;;;;;4.10;2.23;;;18.80;99.90;;;;;;5137291;27;20446;-83
2022/06/05 00:20:20;;;;;;;1.93;1.37;;;18.80;99.90;;;;;;5137239;27;20453;-82
2022/06/05 00:22:47;;;;;;;1.67;1.50;;;18.70;99.90;;;;;;5137093;27;20485;-82
2022/06/05 00:25:14;;;;;;;2.07;1.40;;;18.80;99.90;;;;;;5137157;27;20782;-82
2022/06/05 00:27:48;;;;;;;4.00;2.30;;;18.70;99.90;;;;;;5136760;27;20499;-82
2022/06/05 00:30:21;;;;;;;1.53;1.17;;;18.70;99.90;;;;;;5136852;27;20459;-82
2022/06/05 00:32:57;;;;;;;2.00;1.77;;;18.70;99.90;;;;;;5136962;27;20473;-82
2022/06/05 00:35:31;;;;;;;2.00;1.30;;;18.70;99.90;;;;;;5136435;27;20504;-82
2022/06/05 00:38:03;;;;;;;1.23;0.90;;;18.60;99.90;;;;;;5136332;27;20430;-83
2022/06/05 00:40:57;;;;;;;2.03;1.40;;;18.60;99.90;;;;;;5136932;27;20449;-83
2022/06/05 00:43:25;;;;;;;1.87;1.20;;;18.60;99.90;;;;;;5136685;27;20482;-83
2022/06/05 00:45:52;;;;;;;4.47;1.47;;;18.60;99.90;;;;;;5136703;27;20454;-83
2022/06/05 00:48:19;;;;;;;1.40;1.20;;;18.60;99.90;;;;;;5136836;27;20450;-83
2022/06/05 00:50:48;;;;;;;1.97;1.43;;;18.60;99.90;;;;;;5136392;27;20933;-83
2022/06/05 00:53:16;;;;;;;1.53;1.27;;;18.60;99.90;;;;;;5136566;27;20463;-83
2022/06/05 00:55:45;;;;;;;1.50;1.37;;;18.60;99.90;;;;;;5136330;27;20435;-83
2022/06/05 00:58:12;;;;;;;3.00;1.87;;;18.50;99.90;;;;;;5136487;27;20461;-83
2022/06/05 01:00:43;;;;;;;1.47;1.23;;;18.50;99.90;;;;;;5136178;27;20465;-83
2022/06/05 01:03:12;;;;;;;1.40;1.30;;;18.50;99.90;;;;;;5135980;27;20992;-83
2022/06/05 01:05:40;;;;;;;1.23;1.00;;;18.50;99.90;;;;;;5136366;27;20457;-83
2022/06/05 01:08:10;;;;;;;3.73;1.50;;;18.50;99.90;;;;;;5136023;27;20438;-83
2022/06/05 01:10:46;;;;;;;2.53;2.33;;;18.40;99.90;;;;;;5136338;27;20433;-83
2022/06/05 01:13:26;;;;;;;1.50;1.40;;;18.40;99.90;;;;;;5136176;27;20470;-83
2022/06/05 01:15:58;;;;;;;1.00;0.90;;;18.30;99.90;;;;;;5136226;27;20437;-83
2022/06/05 01:18:31;;;;;;;1.57;1.47;;;18.30;99.90;;;;;;5136223;27;20445;-83
2022/06/05 01:21:11;;;;;;;3.30;1.40;;;18.30;99.90;;;;;;5136139;27;20435;-82
2022/06/05 01:23:54;;;;;;;1.37;1.10;;;18.30;99.90;;;;;;5135985;27;20485;-83
2022/06/05 01:26:28;;;;;;;1.20;1.10;;;18.20;99.90;;;;;;5136006;27;20438;-83
2022/06/05 01:28:59;;;;;;;1.37;1.23;;;18.20;99.90;;;;;;5135664;27;20829;-83
2022/06/05 01:31:32;;;;;;;3.60;1.73;;;18.20;99.90;;;;;;5135919;27;20425;-83
2022/06/05 01:34:06;;;;;;;2.37;1.50;;;18.20;99.90;;;;;;5135454;27;20478;-83
2022/06/05 01:36:42;;;;;;;2.17;1.37;;;18.10;99.90;;;;;;5135521;27;20936;-83
2022/06/05 01:39:12;;;;;;;4.23;2.00;;;18.20;99.90;;;;;;5135769;27;20434;-83
2022/06/05 01:41:46;;;;;;;2.50;1.33;;;18.10;99.90;;;;;;5135721;27;20460;-83
2022/06/05 01:44:18;;;;;;;2.07;1.80;;;18.10;99.90;;;;;;5135623;27;20454;-82
2022/06/05 01:46:45;;;;;;;2.37;1.47;;;18.10;99.90;;;;;;5135635;27;20423;-82
2022/06/05 01:49:16;;;;;;;1.40;1.20;;;18.10;99.90;;;;;;5135129;27;20963;-83
2022/06/05 01:51:50;;;;;;;1.57;1.47;;;18.00;99.90;;;;;;5135224;27;20437;-83
2022/06/05 01:54:24;;;;;;;2.50;1.87;;;18.00;99.90;;;;;;5135231;27;20446;-83
2022/06/05 01:56:56;;;;;;;4.47;1.47;;;18.00;99.90;;;;;;5135857;27;20434;-83
2022/06/05 01:59:31;;;;;;;1.30;1.10;;;18.00;99.90;;;;;;5135091;27;20936;-82
2022/06/05 02:02:02;;;;;;;1.50;1.03;;;18.00;99.90;;;;;;5134917;27;20909;-83
2022/06/05 02:04:34;;;;;;;5.53;2.37;;;18.00;99.90;;;;;;5134896;27;20995;-83
2022/06/05 02:07:07;;;;;;;3.50;1.63;;;18.00;99.90;;;;;;5134903;27;20793;-82
2022/06/05 02:09:38;;;;;;;4.67;1.37;;;17.90;99.90;;;;;;5135017;27;20778;-83
2022/06/05 02:12:08;;;;;;;1.60;1.10;;;18.00;99.90;;;;;;5135104;27;20435;-82
2022/06/05 02:14:37;;;;;;;3.13;1.57;;;18.00;99.90;;;;;;5135019;27;20473;-82
2022/06/05 02:17:05;;;;;;;1.43;1.20;;;18.00;99.90;;;;;;5134993;27;20485;-83
2022/06/05 02:19:33;;;;;;;3.47;1.60;;;18.10;99.90;;;;;;5134939;27;20453;-83
2022/06/05 02:22:04;;;;;;;2.07;1.23;;;18.10;99.90;;;;;;5134869;27;20446;-82
2022/06/05 02:24:32;;;;;;;1.07;0.97;;;18.10;99.90;;;;;;5134818;27;20473;-82
2022/06/05 02:27:01;;;;;;;2.80;1.10;;;18.20;99.90;;;;;;5134512;27;20945;-82
2022/06/05 02:29:29;;;;;;;1.67;1.57;;;18.20;99.90;;;;;;5134490;27;20961;-83
2022/06/05 02:32:08;;;;;;;2.70;1.40;;;18.30;99.90;;;;;;5134772;27;20458;-82
2022/06/05 02:34:46;;;;;;;1.90;1.23;;;18.20;99.90;;;;;;5134425;27;20485;-82
2022/06/05 02:37:27;;;;;;;3.07;1.47;;;18.30;99.90;;;;;;5134728;27;20426;-83
2022/06/05 02:40:04;;;;;;;1.73;1.33;;;18.30;99.90;;;;;;5134666;27;20426;-83
2022/06/05 02:42:34;;;;;;;2.13;1.87;;;18.30;99.90;;;;;;5134270;27;20449;-83
2022/06/05 02:45:14;;;;;;;3.27;1.47;;;18.30;99.90;;;;;;5134544;27;20453;-83
2022/06/05 02:47:46;;;;;;;2.20;1.40;;;18.30;99.90;;;;;;5134271;27;20802;-83
2022/06/05 02:50:19;;;;;;;1.20;1.10;;;18.20;99.90;;;;;;5134552;27;20441;-83
2022/06/05 02:52:47;;;;;;;1.60;1.50;;;18.10;99.90;;;;;;5134475;27;20462;-83
2022/06/05 02:55:16;;;;;;;1.37;1.00;;;18.00;99.90;;;;;;5134428;27;20452;-82
2022/06/05 02:57:44;;;;;;;2.40;2.20;;;18.10;99.90;;;;;;5134395;27;20438;-83
2022/06/05 03:00:15;;;;;;;1.67;1.57;;;18.10;99.90;;;;;;5133811;27;20460;-82
2022/06/05 03:05:26;;;;;;;2.87;1.77;;;18.20;99.90;;;;;;5134427;28;20402;-82
2022/06/05 03:07:53;;;;;;;1.40;1.23;;;18.30;99.90;;;;;;5134288;27;20442;-82
2022/06/05 03:10:20;;;;;;;2.53;1.50;;;18.30;99.90;;;;;;5134238;27;20450;-82
2022/06/05 03:12:47;;;;;;;2.63;1.80;;;18.40;99.90;;;;;;5134205;27;20473;-83
2022/06/05 03:15:15;;;;;;;1.47;1.37;;;18.30;99.90;;;;;;5133968;27;20438;-82
2022/06/05 03:17:42;;;;;;;1.33;1.17;;;18.30;99.90;;;;;;5134205;27;20498;-82
2022/06/05 03:20:10;;;;;;;2.37;1.23;;;18.30;99.90;;;;;;5133881;27;20445;-82
2022/06/05 03:22:37;;;;;;;1.53;1.23;;;18.30;99.90;;;;;;5134035;27;20486;-82
2022/06/05 03:25:05;;;;;;;4.00;2.40;;;18.30;99.90;;;;;;5134146;27;20459;-82
2022/06/05 03:27:32;;;;;;;1.57;1.50;;;18.30;99.90;;;;;;5134167;27;20449;-82
2022/06/05 03:29:59;;;;;;;1.77;1.67;;;18.40;99.90;;;;;;5133872;27;20956;-82
2022/06/05 03:32:28;;;;;;;1.53;1.13;;;18.40;99.90;;;;;;5134030;27;20445;-82
2022/06/05 03:34:55;;;;;;;2.60;1.33;;;18.40;99.90;;;;;;5133708;27;20481;-83
2022/06/05 03:37:21;;;;;;;2.77;1.53;;;18.30;99.90;;;;;;5133681;27;20806;-83
2022/06/05 03:39:48;;;;;;;4.80;1.90;;;18.30;99.90;;;;;;5134020;27;20442;-83
2022/06/05 03:42:15;;;;;;;1.70;1.47;;;18.20;99.90;;;;;;5133947;27;20442;-83
2022/06/05 03:44:43;;;;;;;2.53;1.80;;;18.20;99.90;;;;;;5133948;27;20478;-83
2022/06/05 03:47:12;;;;;;;2.00;1.23;;;18.20;99.90;;;;;;5133992;27;20441;-83
2022/06/05 03:49:40;;;;;;;3.13;1.70;;;18.20;99.90;;;;;;5133946;27;20491;-82
2022/06/05 03:52:10;;;;;;;3.17;2.10;;;18.20;99.90;;;;;;5133957;27;20469;-83
2022/06/05 03:54:38;;;;;;;1.30;1.20;;;18.20;99.90;;;;;;5133797;27;20462;-83
2022/06/05 03:57:06;;;;;;;3.30;1.30;;;18.30;99.90;;;;;;5133860;27;20450;-83
2022/06/05 03:59:34;;;;;;;1.53;1.20;;;18.40;99.90;;;;;;5133854;27;20450;-83
2022/06/05 04:02:01;;;;;;;1.50;1.40;;;18.30;99.90;;;;;;5133564;27;20438;-83
2022/06/05 04:04:28;;;;;;;0.70;0.70;;;18.20;99.90;;;;;;5133689;27;20481;-83
2022/06/05 04:06:56;;;;;;;1.10;1.00;;;18.30;99.90;;;;;;5133753;27;20473;-83
2022/06/05 04:09:23;;;;;;;2.33;1.43;;;18.20;99.90;;;;;;5133767;27;20470;-83
2022/06/05 04:11:49;;;;;;;1.53;1.00;;;18.10;99.90;;;;;;5135023;27;20449;-83
2022/06/05 04:14:16;;;;;;;1.60;0.97;;;18.10;99.90;;;;;;5137377;27;20802;-83
2022/06/05 04:16:43;;;;;;;2.63;1.50;;;18.00;99.90;;;;;;5137386;27;20445;-83
2022/06/05 04:19:10;;;;;;;1.93;1.30;;;17.90;99.90;;;;;;5137306;27;20441;-83
2022/06/05 04:21:40;;;;;;;2.97;1.97;;;17.80;99.90;;;;;;5136995;27;20937;-83
2022/06/05 04:24:11;;;;;;;2.80;2.07;;;17.80;99.90;;;;;;5137091;27;20482;-83
2022/06/05 04:26:40;;;;;;;2.03;1.47;;;17.80;99.90;;;;;;5137265;27;20846;-83
2022/06/05 04:29:07;;;;;;;4.60;2.57;;;17.70;99.90;;;;;;5137133;27;20450;-83
2022/06/05 04:31:36;;;;;;;1.20;1.10;;;17.70;99.90;;;;;;5137056;27;20450;-83
2022/06/05 04:34:06;;;;;;;3.50;1.47;;;17.70;99.90;;;;;;5136535;27;20535;-83
2022/06/05 04:36:32;;;;;;;1.67;1.30;;;17.70;99.90;;;;;;5137019;27;20446;-83
2022/06/05 04:38:59;;;;;;;2.23;1.67;;;17.70;99.90;;;;;;5136931;27;20446;-84
2022/06/05 04:41:28;;;;;;;1.67;1.13;;;17.70;99.90;;;;;;5136901;27;20442;-83
2022/06/05 04:43:56;;;;;;;1.30;1.07;;;17.70;99.90;;;;;;5136684;27;20489;-83
2022/06/05 04:46:25;;;;;;;2.90;1.50;;;17.70;99.90;;;;;;5136769;27;20454;-83
2022/06/05 04:48:52;;;;;;;4.00;1.37;;;17.70;99.90;;;;;;5136376;27;20823;-83
2022/06/05 04:51:20;;;;;;;1.37;0.90;;;17.70;99.90;;;;;;5136396;27;20449;-82
2022/06/05 04:53:49;;;;;;;1.27;1.17;;;17.60;99.90;;;;;;5136596;27;20469;-82
2022/06/05 04:56:18;;;;;;;1.57;1.47;;;17.50;99.90;;;;;;5136370;27;20446;-81
2022/06/05 04:58:46;;;;;;;1.57;1.33;;;17.40;99.90;;;;;;5137178;27;20446;-80
2022/06/05 05:01:15;;;;;;;1.50;1.40;;;17.30;99.90;;;;;;5137868;27;20445;-80
2022/06/05 05:03:43;;;;;;;1.43;1.13;;;17.30;99.90;;;;;;5138003;27;20482;-80
2022/06/05 05:06:10;;;;;;;1.63;1.47;;;17.20;99.90;;;;;;5136612;27;20427;-79
2022/06/05 05:08:37;;;;;;;2.27;2.07;;;17.10;99.90;;;;;;5136344;27;20450;-79
2022/06/05 05:11:04;;;;;;;1.63;1.40;;;17.10;99.90;;;;;;5136022;27;20941;-79
2022/06/05 05:13:31;;;;;;;2.50;1.40;;;17.00;99.90;;;;;;5136182;27;20454;-79
2022/06/05 05:16:00;;;;;;;3.90;2.57;;;17.00;99.90;;;;;;5136257;27;20453;-78
2022/06/05 05:18:27;;;;;;;1.27;0.83;;;17.00;99.90;;;;;;5136221;27;20445;-78
2022/06/05 05:20:54;;;;;;;2.00;1.90;;;16.90;99.90;;;;;;5136114;27;20446;-78
2022/06/05 05:23:20;;;;;;;6.00;1.20;;;16.90;99.90;;;;;;5135519;27;20817;-78
2022/06/05 05:25:48;;;;;;;1.70;1.60;;;17.00;99.90;;;;;;5136433;27;20449;-78
2022/06/05 05:28:16;;;;;;;3.80;1.27;;;17.00;99.90;;;;;;5135748;27;20917;-78
2022/06/05 05:30:44;;;;;;;4.57;1.50;;;17.00;99.90;;;;;;5135612;27;20468;-77
2022/06/05 05:33:13;;;;;;;1.03;0.93;;;16.80;99.90;;;;;;5135782;27;20470;-77
2022/06/05 05:35:39;;;;;;;3.60;1.33;;;16.70;99.90;;;;;;5135562;27;20474;-77
2022/06/05 05:38:06;;;;;;;2.90;1.93;;;16.60;99.90;;;;;;5135712;27;20446;-77
2022/06/05 05:43:17;;;;;;;1.77;1.67;;;16.70;99.90;;;;;;5135510;27;20564;-77
2022/06/05 05:45:45;;;;;;;1.50;0.90;;;16.70;99.90;;;;;;5135654;27;20446;-77
2022/06/05 05:48:13;;;;;;;1.13;1.00;;;16.70;99.90;;;;;;5135586;27;20441;-77
2022/06/05 05:50:43;;;;;;;1.20;1.00;;;16.60;99.90;;;;;;5135562;27;20457;-77
2022/06/05 05:53:10;;;;;;;1.43;1.33;;;16.50;99.90;;;;;;5135411;27;20458;-78
2022/06/05 05:55:37;;;;;;;1.40;1.30;;;16.40;99.90;;;;;;5135105;27;20458;-79
2022/06/05 05:58:04;;;;;;;2.70;1.23;;;16.50;99.90;;;;;;5135088;27;20959;-78
2022/06/05 06:00:31;;;;;;;1.10;0.90;;;16.50;99.90;;;;;;5135339;27;20453;-78
2022/06/05 06:02:58;;;;;;;1.07;0.97;;;16.50;99.90;;;;;;5134919;27;20981;-78
2022/06/05 06:05:26;;;;;;;2.40;1.00;;;16.50;99.90;;;;;;5135156;27;20531;-78
2022/06/05 06:07:53;;;;;;;1.43;0.60;;;16.40;99.90;;;;;;5134869;27;20990;-78
2022/06/05 06:10:19;;;;;;;0.60;0.60;;;16.40;99.90;;;;;;5135188;27;20430;-79
2022/06/05 06:12:46;;;;;;;1.07;0.70;;;16.30;99.90;;;;;;5135056;27;20466;-78
2022/06/05 06:15:13;;;;;;;0.83;0.80;;;16.30;99.90;;;;;;5135050;27;20443;-78
2022/06/05 06:17:40;;;;;;;1.53;0.70;;;16.30;99.90;;;;;;5134719;27;20446;-78
2022/06/05 06:20:08;;;;;;;0.87;0.70;;;16.40;99.90;;;;;;5134701;27;20929;-78
2022/06/05 06:22:36;;;;;;;0.83;0.73;;;16.40;99.90;;;;;;5134871;27;20473;-78
2022/06/05 06:25:03;;;;;;;1.80;0.77;;;16.30;99.90;;;;;;5134474;27;21000;-78
2022/06/05 06:27:29;;;;;;;0.60;0.60;;;16.30;99.90;;;;;;5134608;27;20461;-78
2022/06/05 06:29:56;;;;;;;1.93;0.60;;;16.40;99.90;;;;;;5134804;27;20442;-78
2022/06/05 06:32:23;;;;;;;1.10;0.60;;;16.40;99.90;;;;;;5134597;27;20446;-78
2022/06/05 06:34:49;;;;;;;1.73;0.90;;;16.40;99.90;;;;;;5133459;27;20477;-78
2022/06/05 06:37:17;;;;;;;0.83;0.83;;;16.40;99.90;;;;;;5134477;27;20457;-78
2022/06/05 06:39:45;;;;;;;0.80;0.80;;;16.40;99.90;;;;;;5134699;27;20445;-79
2022/06/05 06:42:11;;;;;;;1.20;0.90;;;16.50;99.90;;;;;;5134597;27;20453;-78
2022/06/05 06:44:38;;;;;;;1.43;0.90;;;16.40;99.90;;;;;;5134445;27;20481;-78
2022/06/05 06:47:05;;;;;;;1.07;1.00;;;16.40;99.90;;;;;;5134532;27;20471;-78
2022/06/05 06:49:33;;;;;;;1.20;0.97;;;16.40;99.90;;;;;;5134539;27;20457;-78
2022/06/05 06:52:01;;;;;;;1.10;1.00;;;16.40;99.90;;;;;;5134467;27;20450;-78
2022/06/05 06:54:27;;;;;;;1.03;0.87;;;16.40;99.90;;;;;;5134085;27;20470;-78
2022/06/05 06:56:56;;;;;;;1.60;0.80;;;16.40;99.90;;;;;;5134475;27;20438;-78
2022/06/05 06:59:23;;;;;;;1.10;0.80;;;16.40;99.90;;;;;;5134378;27;20442;-78
2022/06/05 07:01:50;;;;;;;1.37;1.37;;;16.40;99.90;;;;;;5134365;27;20454;-78
2022/06/05 07:04:17;;;;;;;1.10;1.00;;;16.40;99.90;;;;;;5133875;27;21015;-78
2022/06/05 07:06:44;;;;;;;0.50;0.50;;;16.40;99.90;;;;;;5134386;27;20434;-78
2022/06/05 07:09:13;;;;;;;0.70;0.70;;;16.40;99.90;;;;;;5134221;27;20446;-78
2022/06/05 07:11:40;;;;;;;1.37;0.93;;;16.40;99.90;;;;;;5134392;27;20430;-78
2022/06/05 07:14:10;;;;;;;0.80;0.70;;;16.50;99.90;;;;;;5133932;27;21044;-78
2022/06/05 07:16:36;;;;;;;1.83;1.00;;;16.50;99.90;;;;;;5134046;27;20905;-78
2022/06/05 07:19:03;;;;;;;2.23;1.50;;;16.50;99.90;;;;;;5133972;27;20427;-78
2022/06/05 07:21:30;;;;;;;0.93;0.80;;;16.50;99.90;;;;;;5134298;27;20423;-78
2022/06/05 07:23:58;;;;;;;1.20;1.10;;;16.50;99.90;;;;;;5134028;27;20485;-78
2022/06/05 07:26:29;;;;;;;0.73;0.73;;;16.50;99.90;;;;;;5134207;27;20446;-78
2022/06/05 07:28:57;;;;;;;3.13;1.23;;;16.50;99.90;;;;;;5134000;27;20824;-78
2022/06/05 07:31:29;;;;;;;1.80;0.83;;;16.50;99.90;;;;;;5134138;27;20498;-78
2022/06/05 07:33:56;;;;;;;2.63;0.83;;;16.40;99.90;;;;;;5133639;27;20945;-78
2022/06/05 07:36:25;;;;;;;1.37;0.97;;;16.40;99.90;;;;;;5133820;27;20438;-78
2022/06/05 07:38:52;;;;;;;1.80;1.50;;;16.50;99.90;;;;;;5134073;27;20450;-78
2022/06/05 07:41:21;;;;;;;1.80;0.90;;;16.50;99.90;;;;;;5134060;27;20442;-78
2022/06/05 07:43:48;;;;;;;0.50;0.50;;;16.50;99.90;;;;;;5133879;27;20469;-78
2022/06/05 07:46:15;;;;;;;1.80;1.00;;;16.60;99.90;;;;;;5136055;27;20442;-78
2022/06/05 07:48:43;;;;;;;0.77;0.77;;;16.60;99.90;;;;;;5137934;27;20511;-78
2022/06/05 07:56:41;;;;;;;0.80;0.70;;;16.70;99.90;;;;;;5137886;27;20447;-78
2022/06/05 07:59:08;;;;;;;0.87;0.70;;;16.70;99.90;;;;;;5137749;27;20446;-78
2022/06/05 08:01:35;;;;;;;0.50;0.50;;;16.70;99.90;;;;;;5137324;27;20884;-78
2022/06/05 08:04:04;;;;;;;0.70;0.70;;;16.70;99.90;;;;;;5137326;27;20470;-78
2022/06/05 08:06:34;;;;;;;1.00;0.70;;;16.70;99.90;;;;;;5137570;27;20442;-78
2022/06/05 08:09:00;;;;;;;0.60;0.60;;;16.70;99.90;;;;;;5137494;27;20445;-78
2022/06/05 08:11:27;;;;;;;2.10;0.93;;;16.80;99.90;;;;;;5137141;27;20867;-78
2022/06/05 08:13:54;;;;;;;1.83;0.40;;;16.90;99.90;;;;;;5137333;27;20470;-78
2022/06/05 08:16:21;;;;;;;0.83;0.50;;;17.10;99.90;;;;;;5137369;27;20450;-78
2022/06/05 08:18:50;;;;;;;0.70;0.70;;;17.20;99.90;;;;;;5137341;27;20450;-79
2022/06/05 08:21:19;;;;;;;0.50;0.50;;;17.40;99.90;;;;;;5137292;27;20810;-78
2022/06/05 08:23:45;;;;;;;1.13;0.80;;;17.50;99.90;;;;;;5137114;27;20466;-78
2022/06/05 08:26:13;;;;;;;0.63;0.63;;;17.70;99.90;;;;;;5137108;27;20484;-79
2022/06/05 08:28:40;;;;;;;0.43;0.40;;;18.00;99.90;;;;;;5137180;27;20808;-79
2022/06/05 08:31:07;;;;;;;0.57;0.50;;;18.30;99.90;;;;;;5137056;27;20442;-79
2022/06/05 08:33:35;;;;;;;0.60;0.60;;;18.60;99.90;;;;;;5136636;27;20477;-83
2022/06/05 08:36:01;;;;;;;0.50;0.50;;;19.10;99.90;;;;;;5136539;27;20497;-79
2022/06/05 08:41:33;;;;;;;0.73;0.70;;;20.00;99.90;;;;;;5137018;27;20398;-79
2022/06/05 08:44:16;;;;;;;0.50;0.50;;;20.40;99.90;;;;;;5136753;27;20465;-79
2022/06/05 08:46:48;;;;;;;0.60;0.60;;;21.00;99.90;;;;;;5136860;27;20429;-79
2022/06/05 08:49:20;;;;;;;0.60;0.60;;;21.40;99.90;;;;;;5136513;27;20648;-79
2022/06/05 08:51:55;;;;;;;4.55;1.25;;;21.90;99.90;;;;;;5136819;27;20624;-79
2022/06/05 08:54:39;;;;;;;0.82;0.80;;;22.20;99.90;;;;;;5136674;27;20216;-79
2022/06/05 08:57:15;;;;;;;0.70;0.70;;;22.70;99.90;;;;;;5135903;27;20184;-79
2022/06/05 08:59:47;;;;;;;1.70;1.05;;;23.00;99.90;;;;;;5136647;27;20195;-79
2022/06/05 09:02:21;;;;;;;0.82;0.73;;;23.30;99.90;;;;;;5136566;27;20192;-79
2022/06/05 09:04:53;;;;;;;1.25;0.80;;;23.00;99.90;;;;;;5136499;27;20206;-79
2022/06/05 09:07:25;;;;;;;0.50;0.50;;;23.00;99.90;;;;;;5136512;27;20191;-79
2022/06/05 09:09:58;;;;;;;2.75;0.80;;;22.70;99.90;;;;;;5136201;27;20200;-79
2022/06/05 09:12:30;;;;;;;0.82;0.63;;;22.30;99.90;;;;;;5136332;27;20195;-79
2022/06/05 09:15:04;;;;;;;0.60;0.60;;;22.00;99.90;;;;;;5136337;27;20181;-80
2022/06/05 09:17:31;;;;;;;0.60;0.60;;;21.50;99.90;;;;;;5136323;27;20186;-80
2022/06/05 09:19:58;;;;;;;1.30;0.70;;;20.80;99.90;;;;;;5135915;27;20449;-79
2022/06/05 09:22:33;;;;;;;2.80;0.50;;;20.40;99.90;;;;;;5136086;27;20442;-80
2022/06/05 09:25:28;;;;;;;0.57;0.57;;;20.20;99.90;;;;;;5136037;27;20471;-80
2022/06/05 09:28:19;;;;;;;0.80;0.80;;;20.20;99.90;;;;;;5136117;27;20464;-79
2022/06/05 09:30:53;;;;;;;0.50;0.50;;;20.40;99.90;;;;;;5133075;27;20453;-80
2022/06/05 09:33:23;;;;;;;0.80;0.80;;;20.50;99.90;;;;;;5135897;27;20462;-79
2022/06/05 09:35:54;;;;;;;0.70;0.50;;;20.60;99.90;;;;;;5135578;27;20473;-79
2022/06/05 09:38:27;;;;;;;0.50;0.50;;;20.60;99.90;;;;;;5135524;27;20917;-80
2022/06/05 09:41:08;;;;;;;1.53;0.73;;;20.60;99.90;;;;;;5135780;27;20450;-80
2022/06/05 09:43:49;;;;;;;0.70;0.70;;;20.70;99.90;;;;;;5135376;27;20469;-79
2022/06/05 09:46:31;;;;;;;0.50;0.50;;;20.90;99.90;;;;;;5135591;27;20473;-80
2022/06/05 09:49:04;;;;;;;1.83;0.97;;;21.00;99.90;;;;;;5135338;27;20433;-80
2022/06/05 09:51:31;;;;;;;0.60;0.60;;;21.30;99.90;;;;;;5135579;27;20445;-80
2022/06/05 09:54:05;;;;;;;0.70;0.70;;;21.60;99.90;;;;;;5135082;27;20944;-80
2022/06/05 09:59:30;;;;;;;0.70;0.70;;;21.90;99.90;;;;;;5134810;27;20944;-79
2022/06/05 10:02:01;;;;;;;0.87;0.70;;;22.00;99.90;;;;;;5135407;27;20180;-79
2022/06/05 10:04:30;;;;;;;0.50;0.50;;;21.70;99.90;;;;;;5135180;27;20457;-79
2022/06/05 10:07:03;;;;;;;0.60;0.60;;;21.60;99.90;;;;;;5135025;27;20426;-79
2022/06/05 10:09:30;;;;;;;1.27;0.87;;;21.40;99.90;;;;;;5135225;27;20834;-79
2022/06/05 10:12:02;;;;;;;1.27;1.17;;;21.20;99.90;;;;;;5134792;27;20822;-79
2022/06/05 10:14:39;;;;;;;0.70;0.70;;;21.10;99.90;;;;;;5135055;27;20469;-79
2022/06/05 10:17:24;;;;;;;0.70;0.70;;;21.00;99.90;;;;;;5135074;27;20429;-79
2022/06/05 10:20:21;;;;;;;1.20;1.10;;;20.90;99.90;;;;;;5134985;27;20453;-79
2022/06/05 10:22:53;;;;;;;1.53;0.80;;;20.70;99.90;;;;;;5134541;27;20995;-79
2022/06/05 10:25:29;;;;;;;1.50;0.83;;;20.60;99.90;;;;;;5134440;27;20811;-79
2022/06/05 10:28:01;;;;;;;1.40;1.30;;;20.50;99.90;;;;;;5134930;27;20509;-79
2022/06/05 10:30:34;;;;;;;3.37;1.27;;;20.30;99.90;;;;;;5134866;27;20452;-80
2022/06/05 10:33:07;;;;;;;1.50;1.10;;;20.20;99.90;;;;;;5134394;27;21018;-89
2022/06/05 10:35:45;;;;;;;3.13;1.27;;;20.00;99.90;;;;;;5134667;27;20499;-84
2022/06/05 10:38:28;;;;;;;0.57;0.57;;;19.80;99.90;;;;;;5134787;27;20509;-79
2022/06/05 10:40:59;;;;;;;1.07;1.00;;;19.60;99.90;;;;;;5134420;27;20491;-80
2022/06/05 10:43:29;;;;;;;1.30;1.20;;;19.50;99.90;;;;;;5134293;27;20518;-80
2022/06/05 10:45:59;;;;;;;1.47;1.37;;;19.30;99.90;;;;;;5134577;27;20458;-80
2022/06/05 10:48:41;;;;;;;0.60;0.50;;;19.20;99.90;;;;;;5134627;27;20439;-80
2022/06/05 10:51:18;;;;;;;0.80;0.60;;;19.10;99.90;;;;;;5134560;27;20426;-80
2022/06/05 10:53:51;;;;;;;0.60;0.60;;;18.90;99.90;;;;;;5134452;27;20462;-80
2022/06/05 10:56:30;;;;;;;0.60;0.60;;;18.90;99.90;;;;;;5134529;27;20426;-80
2022/06/05 10:59:06;;;;;;;0.40;0.40;;;18.70;99.90;;;;;;5134514;27;20467;-80
2022/06/05 11:01:51;;;;;;;0.60;0.60;;;18.70;99.90;;;;;;5134531;27;20433;-81
2022/06/05 11:04:30;;;;;;;2.00;0.80;;;18.60;99.90;;;;;;5134065;27;20470;-80
2022/06/05 11:07:03;;;;;;;1.87;0.57;;;18.50;99.90;;;;;;5134372;27;20470;-80
2022/06/05 11:09:40;;;;;;;1.00;0.60;;;18.50;99.90;;;;;;5134407;27;20432;-80
2022/06/05 11:15:10;;;;;;;1.10;0.90;;;18.50;99.90;;;;;;5134075;28;20397;-78
2022/06/05 11:17:51;;;;;;;0.83;0.50;;;18.50;99.90;;;;;;5134231;27;20430;-78
2022/06/05 11:20:22;;;;;;;1.40;0.60;;;18.50;99.90;;;;;;5134744;27;20496;-77
2022/06/05 11:22:56;;;;;;;1.10;0.60;;;18.50;99.90;;;;;;5138387;27;20510;-78
2022/06/05 11:25:26;;;;;;;2.10;1.00;;;18.50;99.90;;;;;;5138296;27;20458;-78
2022/06/05 11:28:12;;;;;;;1.07;0.70;;;18.50;99.90;;;;;;5138100;27;20909;-79
2022/06/05 11:30:47;;;;;;;1.23;1.23;;;18.60;99.90;;;;;;5138372;27;20405;-77
2022/06/05 11:33:20;;;;;;;1.23;0.70;;;18.80;99.90;;;;;;5137917;27;20508;-77
2022/06/05 11:35:59;;;;;;;0.77;0.60;;;18.90;99.90;;;;;;5137862;27;20470;-77
2022/06/05 11:38:36;;;;;;;0.40;0.40;;;19.20;99.90;;;;;;5138207;27;20437;-77
2022/06/05 11:41:13;;;;;;;1.60;0.90;;;19.60;99.90;;;;;;5138174;27;20426;-77
2022/06/05 11:43:41;;;;;;;0.70;0.70;;;19.90;99.90;;;;;;5138032;27;20517;-76
2022/06/05 11:46:19;;;;;;;0.90;0.60;;;20.00;99.90;;;;;;5137936;27;20472;-76
2022/06/05 11:48:51;;;;;;;2.33;0.47;;;20.20;99.90;;;;;;5137977;27;20435;-76
2022/06/05 11:51:23;;;;;;;0.57;0.57;;;20.30;99.90;;;;;;5137683;27;20426;-76
2022/06/05 11:54:01;;;;;;;0.60;0.50;;;20.40;99.90;;;;;;5137853;27;20461;-77
2022/06/05 11:56:45;;;;;;;0.50;0.50;;;20.30;99.90;;;;;;5137588;27;20433;-76
2022/06/05 11:59:24;;;;;;;0.73;0.70;;;20.30;99.90;;;;;;5137859;27;20433;-76
2022/06/05 12:01:57;;;;;;;0.60;0.60;;;20.30;99.90;;;;;;5137802;27;20407;-76
2022/06/05 12:04:34;;;;;;;1.07;0.50;;;20.30;99.90;;;;;;5137305;27;20476;-77
2022/06/05 12:07:04;;;;;;;0.70;0.70;;;20.20;99.90;;;;;;5137276;27;20472;-76
2022/06/05 12:09:35;;;;;;;0.53;0.53;;;20.30;99.90;;;;;;5137528;27;20446;-76
2022/06/05 12:12:08;;;;;;;0.77;0.60;;;20.30;99.90;;;;;;5137590;27;20457;-76
2022/06/05 12:14:40;;;;;;;1.37;1.00;;;20.30;99.90;;;;;;5137514;27;20900;-76
2022/06/05 12:17:17;;;;;;;2.10;0.70;;;20.40;99.90;;;;;;5137477;27;20433;-76
2022/06/05 12:19:59;;;;;;;1.70;0.93;;;20.50;99.90;;;;;;5137431;27;20441;-76
2022/06/05 12:22:30;;;;;;;0.50;0.50;;;20.50;99.90;;;;;;5137411;27;20794;-76
2022/06/05 12:25:05;;;;;;;0.50;0.50;;;20.50;99.90;;;;;;5137290;27;20434;-76
2022/06/05 12:27:46;;;;;;;1.17;0.70;;;20.50;99.90;;;;;;5136993;27;20434;-76
2022/06/05 12:30:21;;;;;;;0.60;0.60;;;20.70;99.90;;;;;;5137305;27;20795;-76
2022/06/05 12:33:02;;;;;;;0.60;0.50;;;20.80;99.90;;;;;;5135814;27;20472;-75
2022/06/05 12:35:33;;;;;;;1.07;0.70;;;21.00;99.90;;;;;;5136720;27;20473;-76
2022/06/05 12:38:17;;;;;;;0.53;0.53;;;21.10;99.90;;;;;;5137617;27;20434;-77
2022/06/05 12:40:50;;;;;;;0.87;0.43;;;21.20;99.90;;;;;;5137019;27;20437;-76
2022/06/05 12:43:24;;;;;;;0.57;0.50;;;21.20;99.90;;;;;;5136913;27;20472;-76
2022/06/05 12:45:59;;;;;;;0.73;0.60;;;21.00;99.90;;;;;;5136906;27;20469;-76
2022/06/05 12:48:30;;;;;;;0.80;0.60;;;21.00;99.90;;;;;;5136923;27;20432;-77
2022/06/05 12:51:03;;;;;;;0.50;0.50;;;20.90;99.90;;;;;;5136875;27;20433;-77
2022/06/05 12:53:43;;;;;;;2.10;0.60;;;21.00;99.90;;;;;;5136385;27;20465;-76
2022/06/05 12:56:27;;;;;;;0.60;0.40;;;20.90;99.90;;;;;;5136713;27;20448;-77
2022/06/05 12:59:01;;;;;;;0.47;0.47;;;20.90;99.90;;;;;;5136357;27;20798;-79
2022/06/05 13:01:34;;;;;;;0.60;0.60;;;20.90;99.90;;;;;;5136659;27;20520;-79
2022/06/05 13:04:08;;;;;;;0.73;0.60;;;20.90;99.90;;;;;;5136541;27;20474;-79
2022/06/05 13:06:57;;;;;;;1.17;0.60;;;21.00;99.90;;;;;;5136178;27;21055;-79
2022/06/05 13:09:32;;;;;;;1.60;0.67;;;21.00;99.90;;;;;;5136514;27;20457;-79
2022/06/05 13:12:04;;;;;;;0.87;0.70;;;21.10;99.90;;;;;;5136435;27;20429;-79
2022/06/05 13:14:40;;;;;;;0.70;0.70;;;21.30;99.90;;;;;;5136329;27;20462;-79
2022/06/05 13:17:20;;;;;;;0.60;0.60;;;21.40;99.90;;;;;;5136082;27;20402;-79
2022/06/05 13:19:54;;;;;;;0.83;0.60;;;21.40;99.90;;;;;;5135974;27;20957;-79
2022/06/05 13:22:30;;;;;;;0.50;0.50;;;21.50;99.90;;;;;;5136184;27;20433;-79
2022/06/05 13:25:03;;;;;;;0.40;0.40;;;21.40;99.90;;;;;;5136123;27;20433;-79
2022/06/05 13:27:37;;;;;;;0.70;0.70;;;21.40;99.90;;;;;;5136032;27;20469;-79